sensor_id;sensor_type;location;lat;lon;timestamp;P1;durP1;ratioP1;P2;durP2;ratioP2
74044;SDS011;62389;51.412;5.436;2023-05-10T00:00:14;26.42;;;11.13;;
74044;SDS011;62389;51.412;5.436;2023-05-10T00:02:40;31.80;;;13.60;;
74044;SDS011;62389;51.412;5.436;2023-05-10T00:05:05;30.83;;;13.05;;
74044;SDS011;62389;51.412;5.436;2023-05-10T00:07:31;32.88;;;13.10;;
74044;SDS011;62389;51.412;5.436;2023-05-10T00:09:57;31.27;;;12.60;;
74044;SDS011;62389;51.412;5.436;2023-05-10T00:12:22;32.25;;;13.55;;
74044;SDS011;62389;51.412;5.436;2023-05-10T00:14:47;34.22;;;14.40;;
74044;SDS011;62389;51.412;5.436;2023-05-10T00:17:13;30.13;;;14.68;;
74044;SDS011;62389;51.412;5.436;2023-05-10T00:19:38;36.45;;;15.10;;
74044;SDS011;62389;51.412;5.436;2023-05-10T00:22:03;37.38;;;14.35;;
74044;SDS011;62389;51.412;5.436;2023-05-10T00:24:29;30.73;;;13.77;;
74044;SDS011;62389;51.412;5.436;2023-05-10T00:26:54;34.45;;;14.93;;
74044;SDS011;62389;51.412;5.436;2023-05-10T00:29:19;36.65;;;14.82;;
74044;SDS011;62389;51.412;5.436;2023-05-10T00:31:45;35.35;;;14.27;;
74044;SDS011;62389;51.412;5.436;2023-05-10T00:34:10;37.85;;;15.70;;
74044;SDS011;62389;51.412;5.436;2023-05-10T00:36:36;36.15;;;14.52;;
74044;SDS011;62389;51.412;5.436;2023-05-10T00:39:01;38.88;;;14.63;;
74044;SDS011;62389;51.412;5.436;2023-05-10T00:41:28;36.80;;;15.63;;
74044;SDS011;62389;51.412;5.436;2023-05-10T00:43:54;35.00;;;15.32;;
74044;SDS011;62389;51.412;5.436;2023-05-10T00:46:19;36.10;;;14.55;;
74044;SDS011;62389;51.412;5.436;2023-05-10T00:48:45;40.20;;;15.68;;
74044;SDS011;62389;51.412;5.436;2023-05-10T00:51:10;35.42;;;13.85;;
74044;SDS011;62389;51.412;5.436;2023-05-10T00:53:36;35.22;;;15.02;;
74044;SDS011;62389;51.412;5.436;2023-05-10T00:56:01;30.83;;;13.30;;
74044;SDS011;62389;51.412;5.436;2023-05-10T00:58:28;35.13;;;15.07;;
74044;SDS011;62389;51.412;5.436;2023-05-10T01:00:55;38.38;;;14.73;;
74044;SDS011;62389;51.412;5.436;2023-05-10T01:03:22;38.67;;;13.40;;
74044;SDS011;62389;51.412;5.436;2023-05-10T01:05:47;42.83;;;16.15;;
74044;SDS011;62389;51.412;5.436;2023-05-10T01:08:12;41.63;;;14.73;;
74044;SDS011;62389;51.412;5.436;2023-05-10T01:10:38;46.00;;;16.02;;
74044;SDS011;62389;51.412;5.436;2023-05-10T01:13:04;41.60;;;15.65;;
74044;SDS011;62389;51.412;5.436;2023-05-10T01:15:29;45.78;;;14.70;;
74044;SDS011;62389;51.412;5.436;2023-05-10T01:17:56;36.65;;;14.80;;
74044;SDS011;62389;51.412;5.436;2023-05-10T01:20:21;41.67;;;15.38;;
74044;SDS011;62389;51.412;5.436;2023-05-10T01:31:13;41.08;;;14.57;;
74044;SDS011;62389;51.412;5.436;2023-05-10T01:33:55;45.97;;;15.75;;
74044;SDS011;62389;51.412;5.436;2023-05-10T01:39:25;38.05;;;14.98;;
74044;SDS011;62389;51.412;5.436;2023-05-10T01:42:10;39.22;;;16.00;;
74044;SDS011;62389;51.412;5.436;2023-05-10T01:44:40;39.35;;;15.50;;
74044;SDS011;62389;51.412;5.436;2023-05-10T01:47:12;47.25;;;16.55;;
74044;SDS011;62389;51.412;5.436;2023-05-10T01:49:50;43.42;;;15.50;;
74044;SDS011;62389;51.412;5.436;2023-05-10T01:52:19;40.72;;;16.25;;
74044;SDS011;62389;51.412;5.436;2023-05-10T01:54:55;41.17;;;15.95;;
74044;SDS011;62389;51.412;5.436;2023-05-10T01:57:25;46.67;;;16.60;;
74044;SDS011;62389;51.412;5.436;2023-05-10T01:59:55;43.75;;;16.35;;
74044;SDS011;62389;51.412;5.436;2023-05-10T02:02:22;40.10;;;16.60;;
74044;SDS011;62389;51.412;5.436;2023-05-10T02:04:51;40.35;;;16.52;;
74044;SDS011;62389;51.412;5.436;2023-05-10T02:07:18;44.78;;;16.92;;
74044;SDS011;62389;51.412;5.436;2023-05-10T02:09:45;44.63;;;17.02;;
74044;SDS011;62389;51.412;5.436;2023-05-10T02:12:13;48.40;;;18.55;;
74044;SDS011;62389;51.412;5.436;2023-05-10T02:14:40;48.13;;;19.55;;
74044;SDS011;62389;51.412;5.436;2023-05-10T02:17:07;49.72;;;18.75;;
74044;SDS011;62389;51.412;5.436;2023-05-10T02:22:01;47.70;;;18.00;;
74044;SDS011;62389;51.412;5.436;2023-05-10T02:24:28;48.25;;;18.35;;
74044;SDS011;62389;51.412;5.436;2023-05-10T02:26:55;50.63;;;20.52;;
74044;SDS011;62389;51.412;5.436;2023-05-10T02:29:22;50.35;;;20.63;;
74044;SDS011;62389;51.412;5.436;2023-05-10T02:31:49;54.42;;;21.27;;
74044;SDS011;62389;51.412;5.436;2023-05-10T02:34:18;54.40;;;21.92;;
74044;SDS011;62389;51.412;5.436;2023-05-10T02:36:46;58.00;;;21.58;;
74044;SDS011;62389;51.412;5.436;2023-05-10T02:39:12;53.55;;;20.88;;
74044;SDS011;62389;51.412;5.436;2023-05-10T02:41:40;54.40;;;20.27;;
74044;SDS011;62389;51.412;5.436;2023-05-10T02:44:07;53.08;;;19.10;;
74044;SDS011;62389;51.412;5.436;2023-05-10T02:46:35;48.50;;;19.63;;
74044;SDS011;62389;51.412;5.436;2023-05-10T02:49:01;47.25;;;19.30;;
74044;SDS011;62389;51.412;5.436;2023-05-10T02:51:28;49.58;;;20.20;;
74044;SDS011;62389;51.412;5.436;2023-05-10T02:54:01;57.22;;;20.48;;
74044;SDS011;62389;51.412;5.436;2023-05-10T02:56:33;50.28;;;19.50;;
74044;SDS011;62389;51.412;5.436;2023-05-10T02:59:00;48.75;;;18.52;;
74044;SDS011;62389;51.412;5.436;2023-05-10T03:01:26;46.53;;;18.48;;
74044;SDS011;62389;51.412;5.436;2023-05-10T03:03:51;51.42;;;20.50;;
74044;SDS011;62389;51.412;5.436;2023-05-10T03:06:17;50.30;;;19.88;;
74044;SDS011;62389;51.412;5.436;2023-05-10T03:08:43;56.33;;;21.55;;
74044;SDS011;62389;51.412;5.436;2023-05-10T03:14:24;46.97;;;18.58;;
74044;SDS011;62389;51.412;5.436;2023-05-10T03:17:03;45.83;;;17.83;;
74044;SDS011;62389;51.412;5.436;2023-05-10T03:19:43;42.20;;;17.27;;
74044;SDS011;62389;51.412;5.436;2023-05-10T03:22:23;47.42;;;17.65;;
74044;SDS011;62389;51.412;5.436;2023-05-10T03:24:53;42.65;;;17.08;;
74044;SDS011;62389;51.412;5.436;2023-05-10T03:27:22;43.15;;;17.30;;
74044;SDS011;62389;51.412;5.436;2023-05-10T03:29:50;51.08;;;18.40;;
74044;SDS011;62389;51.412;5.436;2023-05-10T03:32:16;42.60;;;17.10;;
74044;SDS011;62389;51.412;5.436;2023-05-10T03:34:42;44.58;;;18.45;;
74044;SDS011;62389;51.412;5.436;2023-05-10T03:37:08;45.80;;;17.70;;
74044;SDS011;62389;51.412;5.436;2023-05-10T03:39:34;46.90;;;17.88;;
74044;SDS011;62389;51.412;5.436;2023-05-10T03:41:59;55.45;;;17.92;;
74044;SDS011;62389;51.412;5.436;2023-05-10T03:44:24;46.22;;;17.50;;
74044;SDS011;62389;51.412;5.436;2023-05-10T03:46:50;45.65;;;17.70;;
74044;SDS011;62389;51.412;5.436;2023-05-10T03:49:15;49.60;;;17.95;;
74044;SDS011;62389;51.412;5.436;2023-05-10T03:51:40;55.20;;;19.65;;
74044;SDS011;62389;51.412;5.436;2023-05-10T03:54:06;55.08;;;19.45;;
74044;SDS011;62389;51.412;5.436;2023-05-10T03:56:31;49.58;;;17.92;;
74044;SDS011;62389;51.412;5.436;2023-05-10T03:58:57;55.55;;;20.02;;
74044;SDS011;62389;51.412;5.436;2023-05-10T04:01:22;51.92;;;18.73;;
74044;SDS011;62389;51.412;5.436;2023-05-10T04:03:48;56.03;;;20.52;;
74044;SDS011;62389;51.412;5.436;2023-05-10T04:06:13;67.75;;;22.15;;
74044;SDS011;62389;51.412;5.436;2023-05-10T04:08:39;57.72;;;19.52;;
74044;SDS011;62389;51.412;5.436;2023-05-10T04:11:04;68.72;;;21.48;;
74044;SDS011;62389;51.412;5.436;2023-05-10T04:13:33;75.07;;;22.42;;
74044;SDS011;62389;51.412;5.436;2023-05-10T04:15:59;64.10;;;21.55;;
74044;SDS011;62389;51.412;5.436;2023-05-10T04:18:25;71.15;;;23.15;;
74044;SDS011;62389;51.412;5.436;2023-05-10T04:20:50;69.68;;;22.67;;
74044;SDS011;62389;51.412;5.436;2023-05-10T04:23:16;75.35;;;23.70;;
74044;SDS011;62389;51.412;5.436;2023-05-10T04:25:41;66.57;;;24.25;;
74044;SDS011;62389;51.412;5.436;2023-05-10T04:28:07;69.30;;;22.65;;
74044;SDS011;62389;51.412;5.436;2023-05-10T04:30:32;63.85;;;22.13;;
74044;SDS011;62389;51.412;5.436;2023-05-10T04:32:58;76.38;;;24.33;;
74044;SDS011;62389;51.412;5.436;2023-05-10T04:35:23;77.60;;;25.30;;
74044;SDS011;62389;51.412;5.436;2023-05-10T04:37:48;69.28;;;23.40;;
74044;SDS011;62389;51.412;5.436;2023-05-10T04:40:14;65.50;;;23.52;;
74044;SDS011;62389;51.412;5.436;2023-05-10T04:42:40;68.95;;;21.42;;
74044;SDS011;62389;51.412;5.436;2023-05-10T04:45:06;70.57;;;22.55;;
74044;SDS011;62389;51.412;5.436;2023-05-10T04:47:32;64.03;;;22.52;;
74044;SDS011;62389;51.412;5.436;2023-05-10T04:49:57;58.53;;;20.58;;
74044;SDS011;62389;51.412;5.436;2023-05-10T04:52:23;56.65;;;22.00;;
74044;SDS011;62389;51.412;5.436;2023-05-10T04:54:49;65.38;;;22.27;;
74044;SDS011;62389;51.412;5.436;2023-05-10T04:57:14;57.42;;;20.95;;
74044;SDS011;62389;51.412;5.436;2023-05-10T04:59:39;55.53;;;20.98;;
74044;SDS011;62389;51.412;5.436;2023-05-10T05:02:05;57.17;;;20.58;;
74044;SDS011;62389;51.412;5.436;2023-05-10T05:04:30;47.95;;;19.15;;
74044;SDS011;62389;51.412;5.436;2023-05-10T05:06:56;53.33;;;19.58;;
74044;SDS011;62389;51.412;5.436;2023-05-10T05:09:22;51.10;;;19.50;;
74044;SDS011;62389;51.412;5.436;2023-05-10T05:11:47;49.55;;;19.05;;
74044;SDS011;62389;51.412;5.436;2023-05-10T05:14:12;49.10;;;17.88;;
74044;SDS011;62389;51.412;5.436;2023-05-10T05:16:38;40.85;;;17.33;;
74044;SDS011;62389;51.412;5.436;2023-05-10T05:19:03;38.22;;;17.80;;
74044;SDS011;62389;51.412;5.436;2023-05-10T05:21:28;41.33;;;15.70;;
74044;SDS011;62389;51.412;5.436;2023-05-10T05:23:54;39.65;;;15.55;;
74044;SDS011;62389;51.412;5.436;2023-05-10T05:26:19;38.92;;;14.70;;
74044;SDS011;62389;51.412;5.436;2023-05-10T05:28:45;38.80;;;16.23;;
74044;SDS011;62389;51.412;5.436;2023-05-10T05:31:10;39.50;;;15.30;;
74044;SDS011;62389;51.412;5.436;2023-05-10T05:33:36;37.53;;;16.02;;
74044;SDS011;62389;51.412;5.436;2023-05-10T05:36:02;41.72;;;16.55;;
74044;SDS011;62389;51.412;5.436;2023-05-10T05:38:28;37.88;;;15.40;;
74044;SDS011;62389;51.412;5.436;2023-05-10T05:40:53;33.97;;;14.75;;
74044;SDS011;62389;51.412;5.436;2023-05-10T05:43:19;33.65;;;13.73;;
74044;SDS011;62389;51.412;5.436;2023-05-10T05:45:44;32.75;;;14.05;;
74044;SDS011;62389;51.412;5.436;2023-05-10T05:48:10;35.03;;;14.88;;
74044;SDS011;62389;51.412;5.436;2023-05-10T05:50:35;31.38;;;14.82;;
74044;SDS011;62389;51.412;5.436;2023-05-10T05:53:00;34.35;;;14.88;;
74044;SDS011;62389;51.412;5.436;2023-05-10T05:55:26;34.42;;;14.38;;
74044;SDS011;62389;51.412;5.436;2023-05-10T05:57:51;29.55;;;13.07;;
74044;SDS011;62389;51.412;5.436;2023-05-10T06:00:16;27.88;;;12.80;;
74044;SDS011;62389;51.412;5.436;2023-05-10T06:02:42;30.20;;;13.32;;
74044;SDS011;62389;51.412;5.436;2023-05-10T06:05:07;31.88;;;14.55;;
74044;SDS011;62389;51.412;5.436;2023-05-10T06:07:33;31.65;;;15.38;;
74044;SDS011;62389;51.412;5.436;2023-05-10T06:09:59;35.92;;;15.90;;
74044;SDS011;62389;51.412;5.436;2023-05-10T06:12:24;31.52;;;13.63;;
74044;SDS011;62389;51.412;5.436;2023-05-10T06:14:49;31.00;;;14.50;;
74044;SDS011;62389;51.412;5.436;2023-05-10T06:17:15;31.02;;;13.93;;
74044;SDS011;62389;51.412;5.436;2023-05-10T06:19:40;30.15;;;14.98;;
74044;SDS011;62389;51.412;5.436;2023-05-10T06:22:05;32.33;;;14.38;;
74044;SDS011;62389;51.412;5.436;2023-05-10T06:24:31;32.00;;;14.10;;
74044;SDS011;62389;51.412;5.436;2023-05-10T06:26:56;32.80;;;14.07;;
74044;SDS011;62389;51.412;5.436;2023-05-10T06:29:25;32.53;;;14.60;;
74044;SDS011;62389;51.412;5.436;2023-05-10T06:31:50;32.25;;;14.88;;
74044;SDS011;62389;51.412;5.436;2023-05-10T06:34:15;31.92;;;13.50;;
74044;SDS011;62389;51.412;5.436;2023-05-10T06:36:41;29.85;;;13.90;;
74044;SDS011;62389;51.412;5.436;2023-05-10T06:39:06;29.73;;;14.10;;
74044;SDS011;62389;51.412;5.436;2023-05-10T06:41:32;31.85;;;14.60;;
74044;SDS011;62389;51.412;5.436;2023-05-10T06:43:57;30.95;;;14.50;;
74044;SDS011;62389;51.412;5.436;2023-05-10T06:46:23;28.20;;;13.90;;
74044;SDS011;62389;51.412;5.436;2023-05-10T06:48:48;32.28;;;14.20;;
74044;SDS011;62389;51.412;5.436;2023-05-10T06:51:13;32.50;;;13.95;;
74044;SDS011;62389;51.412;5.436;2023-05-10T06:53:39;30.02;;;16.02;;
74044;SDS011;62389;51.412;5.436;2023-05-10T06:56:04;26.00;;;12.77;;
74044;SDS011;62389;51.412;5.436;2023-05-10T06:58:30;32.42;;;14.45;;
74044;SDS011;62389;51.412;5.436;2023-05-10T07:01:01;31.40;;;15.52;;
74044;SDS011;62389;51.412;5.436;2023-05-10T07:03:27;30.05;;;15.77;;
74044;SDS011;62389;51.412;5.436;2023-05-10T07:05:52;29.15;;;13.60;;
74044;SDS011;62389;51.412;5.436;2023-05-10T07:08:17;27.50;;;14.00;;
74044;SDS011;62389;51.412;5.436;2023-05-10T07:10:43;26.92;;;14.13;;
74044;SDS011;62389;51.412;5.436;2023-05-10T07:13:08;28.05;;;13.65;;
74044;SDS011;62389;51.412;5.436;2023-05-10T07:15:34;27.60;;;13.18;;
74044;SDS011;62389;51.412;5.436;2023-05-10T07:18:00;24.85;;;11.82;;
74044;SDS011;62389;51.412;5.436;2023-05-10T07:20:25;24.08;;;11.65;;
74044;SDS011;62389;51.412;5.436;2023-05-10T07:22:51;28.55;;;12.88;;
74044;SDS011;62389;51.412;5.436;2023-05-10T07:25:16;25.83;;;11.77;;
74044;SDS011;62389;51.412;5.436;2023-05-10T07:27:41;24.23;;;11.30;;
74044;SDS011;62389;51.412;5.436;2023-05-10T07:30:07;25.10;;;11.18;;
74044;SDS011;62389;51.412;5.436;2023-05-10T07:32:33;23.10;;;10.65;;
74044;SDS011;62389;51.412;5.436;2023-05-10T07:34:58;22.02;;;11.52;;
74044;SDS011;62389;51.412;5.436;2023-05-10T07:37:23;18.13;;;9.40;;
74044;SDS011;62389;51.412;5.436;2023-05-10T07:39:49;23.98;;;9.15;;
74044;SDS011;62389;51.412;5.436;2023-05-10T07:42:14;17.85;;;8.88;;
74044;SDS011;62389;51.412;5.436;2023-05-10T07:44:40;18.58;;;8.80;;
74044;SDS011;62389;51.412;5.436;2023-05-10T07:47:05;15.60;;;9.30;;
74044;SDS011;62389;51.412;5.436;2023-05-10T07:49:30;21.48;;;9.57;;
74044;SDS011;62389;51.412;5.436;2023-05-10T07:51:55;16.40;;;8.35;;
74044;SDS011;62389;51.412;5.436;2023-05-10T07:54:21;14.15;;;7.10;;
74044;SDS011;62389;51.412;5.436;2023-05-10T07:56:46;14.32;;;7.57;;
74044;SDS011;62389;51.412;5.436;2023-05-10T07:59:16;17.42;;;7.70;;
74044;SDS011;62389;51.412;5.436;2023-05-10T08:01:42;15.40;;;7.72;;
74044;SDS011;62389;51.412;5.436;2023-05-10T08:04:08;14.88;;;7.60;;
74044;SDS011;62389;51.412;5.436;2023-05-10T08:06:33;13.05;;;6.90;;
74044;SDS011;62389;51.412;5.436;2023-05-10T08:08:59;16.27;;;7.25;;
74044;SDS011;62389;51.412;5.436;2023-05-10T08:11:24;13.95;;;7.28;;
74044;SDS011;62389;51.412;5.436;2023-05-10T08:13:50;13.30;;;6.95;;
74044;SDS011;62389;51.412;5.436;2023-05-10T08:16:16;16.20;;;7.13;;
74044;SDS011;62389;51.412;5.436;2023-05-10T08:18:42;15.95;;;7.05;;
74044;SDS011;62389;51.412;5.436;2023-05-10T08:21:08;11.98;;;7.07;;
74044;SDS011;62389;51.412;5.436;2023-05-10T08:23:35;14.25;;;6.93;;
74044;SDS011;62389;51.412;5.436;2023-05-10T08:26:01;11.90;;;7.25;;
74044;SDS011;62389;51.412;5.436;2023-05-10T08:28:26;15.32;;;6.85;;
74044;SDS011;62389;51.412;5.436;2023-05-10T08:30:52;15.82;;;7.28;;
74044;SDS011;62389;51.412;5.436;2023-05-10T08:33:17;13.55;;;7.18;;
74044;SDS011;62389;51.412;5.436;2023-05-10T08:35:43;13.57;;;6.97;;
74044;SDS011;62389;51.412;5.436;2023-05-10T08:38:09;11.43;;;6.38;;
74044;SDS011;62389;51.412;5.436;2023-05-10T08:40:34;11.75;;;6.55;;
74044;SDS011;62389;51.412;5.436;2023-05-10T08:43:05;14.20;;;7.40;;
74044;SDS011;62389;51.412;5.436;2023-05-10T08:45:33;15.10;;;6.75;;
74044;SDS011;62389;51.412;5.436;2023-05-10T08:48:02;11.50;;;7.55;;
74044;SDS011;62389;51.412;5.436;2023-05-10T08:50:30;15.85;;;7.13;;
74044;SDS011;62389;51.412;5.436;2023-05-10T08:52:57;12.68;;;6.43;;
74044;SDS011;62389;51.412;5.436;2023-05-10T08:55:25;12.52;;;7.40;;
74044;SDS011;62389;51.412;5.436;2023-05-10T08:57:50;13.05;;;6.60;;
74044;SDS011;62389;51.412;5.436;2023-05-10T09:00:16;11.65;;;7.07;;
74044;SDS011;62389;51.412;5.436;2023-05-10T09:02:43;11.27;;;6.30;;
74044;SDS011;62389;51.412;5.436;2023-05-10T09:05:09;12.60;;;6.47;;
74044;SDS011;62389;51.412;5.436;2023-05-10T09:07:35;11.07;;;6.68;;
74044;SDS011;62389;51.412;5.436;2023-05-10T09:10:01;10.90;;;6.72;;
74044;SDS011;62389;51.412;5.436;2023-05-10T09:12:27;11.13;;;6.88;;
74044;SDS011;62389;51.412;5.436;2023-05-10T09:14:53;14.30;;;6.93;;
74044;SDS011;62389;51.412;5.436;2023-05-10T09:17:20;11.07;;;6.10;;
74044;SDS011;62389;51.412;5.436;2023-05-10T09:19:48;13.30;;;6.80;;
74044;SDS011;62389;51.412;5.436;2023-05-10T09:22:13;12.13;;;6.78;;
74044;SDS011;62389;51.412;5.436;2023-05-10T09:24:39;11.25;;;7.13;;
74044;SDS011;62389;51.412;5.436;2023-05-10T09:27:09;12.88;;;7.15;;
74044;SDS011;62389;51.412;5.436;2023-05-10T09:29:41;18.98;;;7.10;;
74044;SDS011;62389;51.412;5.436;2023-05-10T09:32:07;15.95;;;6.82;;
74044;SDS011;62389;51.412;5.436;2023-05-10T09:34:33;13.07;;;7.55;;
74044;SDS011;62389;51.412;5.436;2023-05-10T09:41:59;13.93;;;7.78;;
74044;SDS011;62389;51.412;5.436;2023-05-10T09:44:26;13.90;;;7.30;;
74044;SDS011;62389;51.412;5.436;2023-05-10T09:46:51;12.25;;;6.90;;
74044;SDS011;62389;51.412;5.436;2023-05-10T09:49:18;10.90;;;6.97;;
74044;SDS011;62389;51.412;5.436;2023-05-10T09:51:46;13.02;;;7.30;;
74044;SDS011;62389;51.412;5.436;2023-05-10T09:54:13;12.00;;;6.90;;
74044;SDS011;62389;51.412;5.436;2023-05-10T09:56:40;10.85;;;6.72;;
74044;SDS011;62389;51.412;5.436;2023-05-10T09:59:07;12.25;;;6.72;;
74044;SDS011;62389;51.412;5.436;2023-05-10T10:01:34;10.23;;;6.30;;
74044;SDS011;62389;51.412;5.436;2023-05-10T10:04:09;10.38;;;6.18;;
74044;SDS011;62389;51.412;5.436;2023-05-10T10:06:35;10.60;;;5.72;;
74044;SDS011;62389;51.412;5.436;2023-05-10T10:09:02;10.43;;;5.60;;
74044;SDS011;62389;51.412;5.436;2023-05-10T10:11:27;9.80;;;5.65;;
74044;SDS011;62389;51.412;5.436;2023-05-10T10:13:53;8.15;;;5.10;;
74044;SDS011;62389;51.412;5.436;2023-05-10T10:16:19;10.40;;;4.43;;
74044;SDS011;62389;51.412;5.436;2023-05-10T10:18:45;7.20;;;4.97;;
74044;SDS011;62389;51.412;5.436;2023-05-10T10:21:13;8.45;;;4.40;;
74044;SDS011;62389;51.412;5.436;2023-05-10T10:23:39;6.57;;;4.30;;
74044;SDS011;62389;51.412;5.436;2023-05-10T10:26:05;6.28;;;4.20;;
74044;SDS011;62389;51.412;5.436;2023-05-10T10:31:12;7.38;;;4.57;;
74044;SDS011;62389;51.412;5.436;2023-05-10T10:34:03;7.65;;;5.15;;
74044;SDS011;62389;51.412;5.436;2023-05-10T10:36:31;11.30;;;5.40;;
74044;SDS011;62389;51.412;5.436;2023-05-10T10:38:59;10.93;;;6.40;;
74044;SDS011;62389;51.412;5.436;2023-05-10T10:41:28;10.93;;;6.75;;
74044;SDS011;62389;51.412;5.436;2023-05-10T10:47:04;13.60;;;8.15;;
74044;SDS011;62389;51.412;5.436;2023-05-10T10:57:26;14.80;;;9.43;;
74044;SDS011;62389;51.412;5.436;2023-05-10T11:02:50;16.35;;;9.75;;
74044;SDS011;62389;51.412;5.436;2023-05-10T11:11:13;16.98;;;9.18;;
74044;SDS011;62389;51.412;5.436;2023-05-10T11:18:36;16.98;;;9.80;;
74044;SDS011;62389;51.412;5.436;2023-05-10T11:21:02;16.95;;;9.00;;
74044;SDS011;62389;51.412;5.436;2023-05-10T11:23:31;15.90;;;8.95;;
74044;SDS011;62389;51.412;5.436;2023-05-10T11:26:07;18.13;;;9.30;;
74044;SDS011;62389;51.412;5.436;2023-05-10T11:28:45;17.67;;;9.40;;
74044;SDS011;62389;51.412;5.436;2023-05-10T11:31:15;19.17;;;10.57;;
74044;SDS011;62389;51.412;5.436;2023-05-10T11:33:42;20.88;;;11.27;;
74044;SDS011;62389;51.412;5.436;2023-05-10T11:36:13;23.45;;;11.60;;
74044;SDS011;62389;51.412;5.436;2023-05-10T11:38:40;23.50;;;11.98;;
74044;SDS011;62389;51.412;5.436;2023-05-10T11:41:07;19.85;;;11.75;;
74044;SDS011;62389;51.412;5.436;2023-05-10T11:43:34;17.00;;;12.07;;
74044;SDS011;62389;51.412;5.436;2023-05-10T11:46:01;18.17;;;10.70;;
74044;SDS011;62389;51.412;5.436;2023-05-10T11:48:29;19.27;;;10.77;;
74044;SDS011;62389;51.412;5.436;2023-05-10T11:50:55;20.42;;;11.40;;
74044;SDS011;62389;51.412;5.436;2023-05-10T11:53:22;21.45;;;11.40;;
74044;SDS011;62389;51.412;5.436;2023-05-10T11:55:47;19.50;;;11.52;;
74044;SDS011;62389;51.412;5.436;2023-05-10T11:58:13;18.73;;;10.65;;
74044;SDS011;62389;51.412;5.436;2023-05-10T12:00:38;19.45;;;10.85;;
74044;SDS011;62389;51.412;5.436;2023-05-10T12:03:04;22.60;;;11.10;;
74044;SDS011;62389;51.412;5.436;2023-05-10T12:05:31;19.73;;;11.38;;
74044;SDS011;62389;51.412;5.436;2023-05-10T12:08:11;20.30;;;10.80;;
74044;SDS011;62389;51.412;5.436;2023-05-10T12:10:37;18.75;;;11.13;;
74044;SDS011;62389;51.412;5.436;2023-05-10T12:13:03;19.85;;;10.35;;
74044;SDS011;62389;51.412;5.436;2023-05-10T12:15:28;24.77;;;11.02;;
74044;SDS011;62389;51.412;5.436;2023-05-10T12:17:53;20.92;;;10.02;;
74044;SDS011;62389;51.412;5.436;2023-05-10T12:20:20;18.27;;;9.88;;
74044;SDS011;62389;51.412;5.436;2023-05-10T12:22:51;18.50;;;9.48;;
74044;SDS011;62389;51.412;5.436;2023-05-10T12:25:21;17.35;;;9.85;;
74044;SDS011;62389;51.412;5.436;2023-05-10T12:27:49;18.73;;;9.18;;
74044;SDS011;62389;51.412;5.436;2023-05-10T12:30:22;17.77;;;10.18;;
74044;SDS011;62389;51.412;5.436;2023-05-10T12:32:49;15.52;;;9.90;;
74044;SDS011;62389;51.412;5.436;2023-05-10T12:35:15;18.63;;;9.68;;
74044;SDS011;62389;51.412;5.436;2023-05-10T12:37:42;19.38;;;9.68;;
74044;SDS011;62389;51.412;5.436;2023-05-10T12:40:08;21.48;;;9.70;;
74044;SDS011;62389;51.412;5.436;2023-05-10T12:42:36;16.90;;;9.05;;
74044;SDS011;62389;51.412;5.436;2023-05-10T12:45:02;18.60;;;9.45;;
74044;SDS011;62389;51.412;5.436;2023-05-10T12:47:29;15.30;;;7.93;;
74044;SDS011;62389;51.412;5.436;2023-05-10T12:49:55;9.68;;;5.70;;
74044;SDS011;62389;51.412;5.436;2023-05-10T12:52:20;8.65;;;5.22;;
74044;SDS011;62389;51.412;5.436;2023-05-10T12:54:45;4.65;;;3.28;;
74044;SDS011;62389;51.412;5.436;2023-05-10T12:57:12;4.93;;;3.10;;
74044;SDS011;62389;51.412;5.436;2023-05-10T12:59:38;5.60;;;4.03;;
74044;SDS011;62389;51.412;5.436;2023-05-10T13:02:03;7.38;;;4.75;;
74044;SDS011;62389;51.412;5.436;2023-05-10T13:04:29;7.57;;;5.40;;
74044;SDS011;62389;51.412;5.436;2023-05-10T13:06:54;7.60;;;5.10;;
74044;SDS011;62389;51.412;5.436;2023-05-10T13:09:23;9.05;;;5.95;;
74044;SDS011;62389;51.412;5.436;2023-05-10T13:11:50;10.85;;;6.93;;
74044;SDS011;62389;51.412;5.436;2023-05-10T13:14:15;10.40;;;6.65;;
74044;SDS011;62389;51.412;5.436;2023-05-10T13:16:41;10.57;;;7.32;;
74044;SDS011;62389;51.412;5.436;2023-05-10T13:19:06;9.52;;;6.78;;
74044;SDS011;62389;51.412;5.436;2023-05-10T13:21:31;10.82;;;7.05;;
74044;SDS011;62389;51.412;5.436;2023-05-10T13:23:57;10.98;;;6.22;;
74044;SDS011;62389;51.412;5.436;2023-05-10T13:26:23;9.55;;;6.10;;
74044;SDS011;62389;51.412;5.436;2023-05-10T13:28:48;9.75;;;7.07;;
74044;SDS011;62389;51.412;5.436;2023-05-10T13:31:14;11.23;;;7.30;;
74044;SDS011;62389;51.412;5.436;2023-05-10T13:33:40;13.30;;;7.25;;
74044;SDS011;62389;51.412;5.436;2023-05-10T13:36:05;13.05;;;8.30;;
74044;SDS011;62389;51.412;5.436;2023-05-10T13:38:31;14.32;;;8.52;;
74044;SDS011;62389;51.412;5.436;2023-05-10T13:40:56;17.25;;;9.50;;
74044;SDS011;62389;51.412;5.436;2023-05-10T13:43:22;18.00;;;9.45;;
74044;SDS011;62389;51.412;5.436;2023-05-10T13:45:48;19.92;;;9.93;;
74044;SDS011;62389;51.412;5.436;2023-05-10T13:48:13;14.93;;;9.10;;
74044;SDS011;62389;51.412;5.436;2023-05-10T13:50:39;15.90;;;7.80;;
74044;SDS011;62389;51.412;5.436;2023-05-10T13:53:05;12.65;;;7.40;;
74044;SDS011;62389;51.412;5.436;2023-05-10T13:55:30;13.25;;;6.35;;
74044;SDS011;62389;51.412;5.436;2023-05-10T13:57:55;11.65;;;6.40;;
74044;SDS011;62389;51.412;5.436;2023-05-10T14:00:21;10.48;;;6.18;;
74044;SDS011;62389;51.412;5.436;2023-05-10T14:02:46;11.45;;;5.95;;
74044;SDS011;62389;51.412;5.436;2023-05-10T14:05:12;9.45;;;6.32;;
74044;SDS011;62389;51.412;5.436;2023-05-10T14:07:37;10.45;;;5.90;;
74044;SDS011;62389;51.412;5.436;2023-05-10T14:10:03;10.95;;;5.32;;
74044;SDS011;62389;51.412;5.436;2023-05-10T14:12:28;11.52;;;6.03;;
74044;SDS011;62389;51.412;5.436;2023-05-10T14:14:54;9.43;;;5.18;;
74044;SDS011;62389;51.412;5.436;2023-05-10T14:17:19;8.30;;;5.15;;
74044;SDS011;62389;51.412;5.436;2023-05-10T14:19:44;7.50;;;4.50;;
74044;SDS011;62389;51.412;5.436;2023-05-10T14:22:10;8.98;;;4.97;;
74044;SDS011;62389;51.412;5.436;2023-05-10T14:24:35;7.85;;;4.82;;
74044;SDS011;62389;51.412;5.436;2023-05-10T14:27:01;6.22;;;3.85;;
74044;SDS011;62389;51.412;5.436;2023-05-10T14:29:26;5.32;;;3.55;;
74044;SDS011;62389;51.412;5.436;2023-05-10T14:31:52;5.18;;;3.28;;
74044;SDS011;62389;51.412;5.436;2023-05-10T14:34:17;4.85;;;3.00;;
74044;SDS011;62389;51.412;5.436;2023-05-10T14:36:42;5.68;;;3.20;;
74044;SDS011;62389;51.412;5.436;2023-05-10T14:39:08;5.70;;;3.40;;
74044;SDS011;62389;51.412;5.436;2023-05-10T14:41:35;5.68;;;2.78;;
74044;SDS011;62389;51.412;5.436;2023-05-10T14:44:00;4.95;;;2.80;;
74044;SDS011;62389;51.412;5.436;2023-05-10T14:46:28;4.82;;;3.08;;
74044;SDS011;62389;51.412;5.436;2023-05-10T14:48:54;5.20;;;3.53;;
74044;SDS011;62389;51.412;5.436;2023-05-10T14:51:20;7.97;;;4.07;;
74044;SDS011;62389;51.412;5.436;2023-05-10T14:53:46;6.28;;;4.10;;
74044;SDS011;62389;51.412;5.436;2023-05-10T14:56:13;8.98;;;4.30;;
74044;SDS011;62389;51.412;5.436;2023-05-10T14:58:38;7.10;;;4.25;;
74044;SDS011;62389;51.412;5.436;2023-05-10T15:01:04;5.93;;;3.83;;
74044;SDS011;62389;51.412;5.436;2023-05-10T15:03:29;7.50;;;4.43;;
74044;SDS011;62389;51.412;5.436;2023-05-10T15:05:55;6.18;;;4.45;;
74044;SDS011;62389;51.412;5.436;2023-05-10T15:08:22;8.35;;;5.03;;
74044;SDS011;62389;51.412;5.436;2023-05-10T15:10:48;7.25;;;4.80;;
74044;SDS011;62389;51.412;5.436;2023-05-10T15:13:14;8.48;;;5.00;;